Time;durP1;ratioP1;P1;durP2;ratioP2;P2;SDS_P1;SDS_P2;PMS_P1;PMS_P2;Temp;Humidity;BMP_temperature;BMP_pressure;BME280_temperature;BME280_humidity;BME280_pressure;Samples;Min_cycle;Max_cycle;Signal;HPM_P1;HPM_P2
2021/11/15 00:01:57;;;;;;;5.55;2.25;;;21.10;48.90;;;;;;4998022;28;20046;-66
2021/11/15 00:04:22;;;;;;;5.20;2.35;;;21.10;48.90;;;;;;4994473;28;20038;-66
2021/11/15 00:06:48;;;;;;;4.68;1.85;;;21.10;48.80;;;;;;4997375;28;20050;-66
2021/11/15 00:09:14;;;;;;;5.03;2.10;;;21.10;48.70;;;;;;4997954;28;20118;-66
2021/11/15 00:11:40;;;;;;;5.88;2.45;;;21.10;48.70;;;;;;4994805;28;20085;-66
2021/11/15 00:14:07;;;;;;;5.57;2.10;;;21.10;48.70;;;;;;4997617;28;20120;-66
2021/11/15 00:16:34;;;;;;;5.03;1.85;;;21.10;48.60;;;;;;4997643;28;20045;-65
2021/11/15 00:19:01;;;;;;;5.25;2.08;;;21.10;48.50;;;;;;4996861;28;20069;-66
2021/11/15 00:21:26;;;;;;;5.43;2.15;;;21.10;48.40;;;;;;4994792;28;20057;-66
2021/11/15 00:23:52;;;;;;;5.82;2.22;;;21.10;48.50;;;;;;4995571;28;20047;-66
2021/11/15 00:26:18;;;;;;;4.80;2.10;;;21.10;48.50;;;;;;4995816;28;20041;-66
2021/11/15 00:28:44;;;;;;;5.25;2.15;;;21.10;48.50;;;;;;4996467;28;20042;-66
2021/11/15 00:31:10;;;;;;;4.78;1.80;;;21.10;48.50;;;;;;4995891;28;20403;-66
2021/11/15 00:33:36;;;;;;;5.13;1.88;;;21.10;48.50;;;;;;4993189;28;20123;-66
2021/11/15 00:36:02;;;;;;;4.25;1.77;;;21.20;48.60;;;;;;4998491;28;20101;-66
2021/11/15 00:38:28;;;;;;;3.75;1.55;;;21.10;48.40;;;;;;4994214;28;20525;-66
2021/11/15 00:40:54;;;;;;;4.45;1.67;;;21.10;48.30;;;;;;4994614;28;20053;-66
2021/11/15 00:43:19;;;;;;;4.93;2.10;;;21.10;48.30;;;;;;4998275;28;20041;-65
2021/11/15 00:45:45;;;;;;;4.68;1.88;;;21.20;48.40;;;;;;4995445;28;20038;-66
2021/11/15 00:48:11;;;;;;;4.78;1.70;;;21.20;48.40;;;;;;4995805;28;20038;-66
2021/11/15 00:50:39;;;;;;;4.20;1.92;;;21.20;48.40;;;;;;4995925;28;20038;-66
2021/11/15 00:53:05;;;;;;;4.75;1.77;;;21.20;48.40;;;;;;4995779;28;20422;-66
2021/11/15 00:55:32;;;;;;;6.28;1.60;;;21.20;48.50;;;;;;4994143;28;20498;-66
2021/11/15 00:57:59;;;;;;;5.00;2.03;;;21.20;48.50;;;;;;4997652;28;20111;-66
2021/11/15 01:00:27;;;;;;;3.53;1.40;;;21.20;48.50;;;;;;4993014;28;20040;-64
2021/11/15 01:02:56;;;;;;;4.50;1.80;;;21.20;48.60;;;;;;4994493;28;20060;-66
2021/11/15 01:05:23;;;;;;;5.40;1.88;;;21.20;48.60;;;;;;4997633;28;20495;-66
2021/11/15 01:07:49;;;;;;;5.20;1.92;;;21.20;48.60;;;;;;4997300;28;20566;-66
2021/11/15 01:10:17;;;;;;;4.85;1.83;;;21.20;48.70;;;;;;4995094;28;20069;-66
2021/11/15 01:12:43;;;;;;;4.53;2.08;;;21.20;48.70;;;;;;4996492;28;20065;-66
2021/11/15 01:15:15;;;;;;;4.30;1.73;;;21.20;48.70;;;;;;4996991;28;20129;-66
2021/11/15 01:17:41;;;;;;;5.32;1.67;;;21.20;48.70;;;;;;4993200;28;20042;-66
2021/11/15 01:20:11;;;;;;;4.07;1.55;;;21.20;48.70;;;;;;4995200;28;20130;-66
2021/11/15 01:22:37;;;;;;;5.03;2.00;;;21.20;48.70;;;;;;4995416;28;20130;-66
2021/11/15 01:25:05;;;;;;;4.30;1.67;;;21.20;48.70;;;;;;4995210;28;20598;-66
2021/11/15 01:27:31;;;;;;;4.65;2.00;;;21.20;48.70;;;;;;4998788;28;20055;-65
2021/11/15 01:29:57;;;;;;;5.35;1.70;;;21.20;48.70;;;;;;4995529;28;20042;-66
2021/11/15 01:32:23;;;;;;;4.20;1.67;;;21.20;48.70;;;;;;4994297;28;20042;-66
2021/11/15 01:34:50;;;;;;;4.40;1.65;;;21.20;48.70;;;;;;4994210;28;20054;-66
2021/11/15 01:37:16;;;;;;;5.22;1.90;;;21.20;48.70;;;;;;4997224;28;20105;-66
2021/11/15 01:39:42;;;;;;;3.97;1.50;;;21.20;48.70;;;;;;4993042;28;20088;-66
2021/11/15 01:42:08;;;;;;;3.80;1.58;;;21.20;48.70;;;;;;4995657;28;20038;-66
2021/11/15 01:44:34;;;;;;;3.72;1.50;;;21.20;48.70;;;;;;4996974;28;20080;-66
2021/11/15 01:47:01;;;;;;;4.95;2.00;;;21.10;48.60;;;;;;4995598;28;20074;-66
2021/11/15 01:49:27;;;;;;;4.55;1.65;;;21.10;48.50;;;;;;4995019;28;20046;-65
2021/11/15 01:51:52;;;;;;;4.57;1.75;;;21.10;48.60;;;;;;4995787;28;20049;-66
2021/11/15 01:54:18;;;;;;;4.30;1.90;;;21.10;48.50;;;;;;4993713;28;20443;-66
2021/11/15 01:56:44;;;;;;;3.85;1.45;;;21.10;48.50;;;;;;4995260;28;20081;-66
2021/11/15 01:59:10;;;;;;;4.28;1.65;;;21.10;48.50;;;;;;4994374;28;20085;-65
2021/11/15 02:01:35;;;;;;;4.18;1.70;;;21.20;48.60;;;;;;4993204;28;20069;-65
2021/11/15 02:04:01;;;;;;;4.18;1.60;;;21.10;48.40;;;;;;4996078;28;20042;-66
2021/11/15 02:06:27;;;;;;;4.82;2.03;;;21.10;48.50;;;;;;4974801;28;20047;-66
2021/11/15 02:08:53;;;;;;;4.22;1.63;;;21.10;48.40;;;;;;4974270;28;20045;-66
2021/11/15 02:11:19;;;;;;;4.03;1.67;;;21.10;48.50;;;;;;4976146;28;20038;-66
2021/11/15 02:13:46;;;;;;;4.32;1.67;;;21.10;48.40;;;;;;4974904;28;20510;-65
2021/11/15 02:16:12;;;;;;;4.38;1.60;;;21.00;48.30;;;;;;4975125;28;20042;-66
2021/11/15 02:18:38;;;;;;;4.30;1.65;;;21.10;48.40;;;;;;4977085;28;20093;-65
2021/11/15 02:21:07;;;;;;;5.25;1.83;;;21.10;48.40;;;;;;4975835;28;20494;-65
2021/11/15 02:23:37;;;;;;;4.18;1.70;;;21.10;48.50;;;;;;4976103;28;20046;-66
2021/11/15 02:26:05;;;;;;;4.13;1.60;;;21.10;48.40;;;;;;4991135;28;20038;-66
2021/11/15 02:28:34;;;;;;;4.03;1.60;;;21.00;48.30;;;;;;4993635;28;20048;-66
2021/11/15 02:31:01;;;;;;;4.22;1.63;;;21.00;48.30;;;;;;5011459;28;20034;-65
2021/11/15 02:33:29;;;;;;;4.00;1.52;;;21.10;48.40;;;;;;4993930;28;20825;-65
2021/11/15 02:35:55;;;;;;;4.45;1.77;;;21.00;48.30;;;;;;4994704;28;20068;-65
2021/11/15 02:38:21;;;;;;;3.70;1.58;;;21.00;48.20;;;;;;4993163;28;20053;-65
2021/11/15 02:40:47;;;;;;;4.50;1.60;;;21.00;48.30;;;;;;4992759;28;20046;-65
2021/11/15 02:43:13;;;;;;;4.28;1.75;;;21.10;48.40;;;;;;4992199;28;20035;-65
2021/11/15 02:45:38;;;;;;;4.50;1.75;;;21.10;48.40;;;;;;4994159;28;20100;-65
2021/11/15 02:48:07;;;;;;;4.60;1.80;;;21.10;48.30;;;;;;4995725;28;20502;-65
2021/11/15 02:50:34;;;;;;;5.30;1.73;;;21.10;48.30;;;;;;4994960;28;20046;-66
2021/11/15 02:53:06;;;;;;;4.57;1.77;;;21.10;48.30;;;;;;4993611;28;20057;-65
2021/11/15 02:55:32;;;;;;;4.57;1.85;;;21.00;48.00;;;;;;4994827;28;20045;-65
2021/11/15 02:58:00;;;;;;;4.05;1.60;;;21.10;48.20;;;;;;4994441;28;20547;-65
2021/11/15 03:00:40;;;;;;;4.10;1.52;;;21.10;48.20;;;;;;4993367;28;20046;-65
2021/11/15 03:03:07;;;;;;;4.47;1.80;;;21.10;48.20;;;;;;4992626;28;20042;-65
2021/11/15 03:05:36;;;;;;;4.65;1.83;;;21.10;48.20;;;;;;4994607;28;20056;-65
2021/11/15 03:08:04;;;;;;;4.88;1.80;;;21.10;48.20;;;;;;4992678;28;20046;-65
2021/11/15 03:10:30;;;;;;;4.20;1.80;;;21.00;47.90;;;;;;4992735;28;20046;-66
2021/11/15 03:12:57;;;;;;;4.45;1.80;;;21.00;47.90;;;;;;4995099;28;20572;-65
2021/11/15 03:15:29;;;;;;;5.13;1.70;;;21.00;48.50;;;;;;4995743;28;20093;-64
2021/11/15 03:18:01;;;;;;;4.38;1.60;;;21.10;48.10;;;;;;4993082;28;20069;-66
2021/11/15 03:20:28;;;;;;;4.28;1.58;;;21.10;48.00;;;;;;4998976;28;20565;-65
2021/11/15 03:22:54;;;;;;;4.80;1.90;;;21.10;48.00;;;;;;4996272;28;20037;-65
2021/11/15 03:25:25;;;;;;;4.88;2.00;;;21.10;48.00;;;;;;4997418;28;20038;-66
2021/11/15 03:27:51;;;;;;;4.75;1.60;;;21.10;47.90;;;;;;4999933;28;20037;-66
2021/11/15 03:30:16;;;;;;;5.03;1.83;;;21.10;47.90;;;;;;4996569;28;20046;-66
2021/11/15 03:32:44;;;;;;;4.93;1.90;;;21.10;47.90;;;;;;4996967;28;20077;-65
2021/11/15 03:35:10;;;;;;;4.68;2.08;;;21.00;47.80;;;;;;4999177;28;20056;-66
2021/11/15 03:37:38;;;;;;;4.22;1.70;;;21.00;47.70;;;;;;4997882;28;20046;-65
2021/11/15 03:40:08;;;;;;;3.88;1.70;;;21.00;47.70;;;;;;4998829;28;20045;-66
2021/11/15 03:42:35;;;;;;;5.47;2.30;;;21.10;47.80;;;;;;4997997;28;20050;-66
2021/11/15 03:45:01;;;;;;;4.95;2.10;;;21.00;47.70;;;;;;4997408;28;20041;-65
2021/11/15 03:47:27;;;;;;;4.60;1.85;;;21.10;47.70;;;;;;4996386;28;20042;-65
2021/11/15 03:49:52;;;;;;;4.63;1.90;;;21.10;47.70;;;;;;4998616;28;20520;-66
2021/11/15 03:52:18;;;;;;;4.63;2.05;;;21.00;47.50;;;;;;4996443;28;20092;-66
2021/11/15 03:54:43;;;;;;;4.32;1.90;;;21.10;47.70;;;;;;5000039;28;20034;-66
2021/11/15 03:57:09;;;;;;;4.35;1.92;;;21.00;47.50;;;;;;4997049;28;20492;-66
2021/11/15 03:59:35;;;;;;;4.90;2.00;;;21.10;47.70;;;;;;4998704;28;20728;-65
2021/11/15 04:02:00;;;;;;;5.00;2.10;;;21.00;47.50;;;;;;4997011;28;20034;-65
2021/11/15 04:04:31;;;;;;;4.40;1.83;;;21.00;47.50;;;;;;4997731;28;20057;-66
2021/11/15 04:06:57;;;;;;;5.10;2.00;;;21.10;47.60;;;;;;4997091;28;20076;-65
2021/11/15 04:09:22;;;;;;;6.18;2.30;;;21.00;47.40;;;;;;4996493;28;20038;-65
2021/11/15 04:11:48;;;;;;;6.18;2.08;;;21.00;47.40;;;;;;4997812;28;20408;-66
2021/11/15 04:14:15;;;;;;;5.05;1.88;;;21.00;47.40;;;;;;4997098;28;20572;-66
2021/11/15 04:16:43;;;;;;;4.50;2.00;;;21.00;47.40;;;;;;4997566;28;20042;-65
2021/11/15 04:19:14;;;;;;;4.30;1.80;;;21.00;47.40;;;;;;4997056;28;20063;-65
2021/11/15 04:21:40;;;;;;;4.82;1.98;;;21.00;47.30;;;;;;4995687;28;20042;-65
2021/11/15 04:24:07;;;;;;;4.95;2.10;;;21.00;47.30;;;;;;4995772;28;20049;-66
2021/11/15 04:26:34;;;;;;;5.07;1.90;;;21.00;47.20;;;;;;4997503;28;20149;-66
2021/11/15 04:28:59;;;;;;;4.57;1.88;;;21.00;47.30;;;;;;4997124;28;20057;-65
2021/11/15 04:31:26;;;;;;;4.50;1.75;;;21.00;47.30;;;;;;4997113;28;20046;-65
2021/11/15 04:33:52;;;;;;;4.60;2.00;;;21.00;47.20;;;;;;4998190;28;20498;-66
2021/11/15 04:36:18;;;;;;;5.22;2.17;;;21.00;47.30;;;;;;4996603;28;20578;-64
2021/11/15 04:38:44;;;;;;;5.75;2.10;;;21.00;47.10;;;;;;4996701;28;20042;-65
2021/11/15 04:41:10;;;;;;;5.10;1.90;;;21.00;47.10;;;;;;4995499;28;20045;-66
2021/11/15 04:43:35;;;;;;;4.90;1.92;;;21.00;47.00;;;;;;4996800;28;20647;-66
2021/11/15 04:46:01;;;;;;;5.20;2.15;;;21.00;47.10;;;;;;4998437;28;20034;-66
2021/11/15 04:48:28;;;;;;;7.30;1.88;;;21.00;47.30;;;;;;4996737;28;20117;-65
2021/11/15 04:50:54;;;;;;;4.70;1.80;;;21.00;47.50;;;;;;4996778;28;20136;-65
2021/11/15 04:53:20;;;;;;;4.75;1.60;;;21.00;47.50;;;;;;4997509;28;20049;-66
2021/11/15 04:55:45;;;;;;;4.22;1.70;;;21.00;47.30;;;;;;4994244;28;20050;-65
2021/11/15 04:58:11;;;;;;;4.65;1.98;;;21.00;47.30;;;;;;4995841;28;20044;-65
2021/11/15 05:00:38;;;;;;;4.90;2.00;;;21.00;47.20;;;;;;4995384;28;20312;-65
2021/11/15 05:03:04;;;;;;;4.55;1.90;;;21.10;47.30;;;;;;4997045;28;20537;-65
2021/11/15 05:05:30;;;;;;;7.30;1.90;;;21.00;47.10;;;;;;4996532;28;20054;-66
2021/11/15 05:07:57;;;;;;;4.65;1.80;;;21.10;47.30;;;;;;4994723;28;20108;-65
2021/11/15 05:10:25;;;;;;;4.95;1.83;;;21.10;47.10;;;;;;4996276;28;20499;-65
2021/11/15 05:12:51;;;;;;;4.88;2.08;;;21.10;47.10;;;;;;4994759;28;20050;-65
2021/11/15 05:15:18;;;;;;;4.60;1.90;;;21.10;47.00;;;;;;4995238;28;20069;-65
2021/11/15 05:17:46;;;;;;;4.45;1.90;;;21.10;47.00;;;;;;4993826;28;20060;-64
2021/11/15 05:20:12;;;;;;;7.55;2.30;;;21.10;47.00;;;;;;4996136;28;20042;-66
2021/11/15 05:22:39;;;;;;;16.08;3.50;;;21.10;47.10;;;;;;4997302;28;20143;-66
2021/11/15 05:25:06;;;;;;;15.27;2.75;;;21.10;47.40;;;;;;4997008;28;20049;-66
2021/11/15 05:27:33;;;;;;;10.23;3.40;;;21.10;47.20;;;;;;4995281;28;20137;-65
2021/11/15 05:29:59;;;;;;;9.23;2.80;;;21.10;47.10;;;;;;4995569;28;20034;-66
2021/11/15 05:32:25;;;;;;;9.48;2.80;;;21.10;47.10;;;;;;4992178;28;20386;-66
2021/11/15 05:34:51;;;;;;;8.02;2.50;;;21.10;47.00;;;;;;4995276;28;20412;-65
2021/11/15 05:37:17;;;;;;;7.15;2.30;;;21.10;46.90;;;;;;4996218;28;20033;-65
2021/11/15 05:39:43;;;;;;;13.05;2.58;;;21.10;46.90;;;;;;4995159;28;20124;-65
2021/11/15 05:42:10;;;;;;;9.93;2.78;;;21.10;47.30;;;;;;4993262;28;20526;-66
2021/11/15 05:44:36;;;;;;;8.85;2.90;;;21.10;47.10;;;;;;4995019;28;20048;-66
2021/11/15 05:47:03;;;;;;;10.05;2.47;;;21.10;47.00;;;;;;4995207;28;20065;-65
2021/11/15 05:49:28;;;;;;;7.43;2.28;;;21.10;46.90;;;;;;4993590;28;20042;-65
2021/11/15 05:51:54;;;;;;;8.45;2.47;;;21.10;46.90;;;;;;4992210;28;20406;-66
2021/11/15 05:54:20;;;;;;;7.20;2.13;;;21.10;46.80;;;;;;4995172;28;20545;-65
2021/11/15 05:56:46;;;;;;;5.60;1.90;;;21.10;46.80;;;;;;4995281;28;20050;-66
2021/11/15 05:59:14;;;;;;;6.47;1.98;;;21.10;46.80;;;;;;4992697;28;20042;-64
2021/11/15 06:01:40;;;;;;;14.02;2.72;;;21.10;46.70;;;;;;4993893;28;20061;-65
2021/11/15 06:04:06;;;;;;;14.30;3.50;;;21.10;46.80;;;;;;4993423;28;20034;-64
2021/11/15 06:06:32;;;;;;;14.50;3.40;;;21.10;47.20;;;;;;4994896;28;20531;-64
2021/11/15 06:08:57;;;;;;;12.80;3.78;;;21.10;47.40;;;;;;4993978;28;20038;-65
2021/11/15 06:11:23;;;;;;;18.10;3.58;;;21.10;47.10;;;;;;4994933;28;20029;-65
2021/11/15 06:13:49;;;;;;;15.48;4.43;;;21.10;47.00;;;;;;4993906;28;20088;-64
2021/11/15 06:16:15;;;;;;;15.00;3.50;;;21.00;46.80;;;;;;4993874;28;20038;-65
2021/11/15 06:18:41;;;;;;;17.65;3.40;;;21.00;46.60;;;;;;4994482;28;20041;-65
2021/11/15 06:21:07;;;;;;;9.88;3.35;;;21.00;46.20;;;;;;4993580;28;20492;-65
2021/11/15 06:23:33;;;;;;;14.75;4.25;;;21.00;46.30;;;;;;4998582;28;20530;-64
2021/11/15 06:25:59;;;;;;;22.08;4.93;;;21.00;45.80;;;;;;4995153;28;20042;-67
2021/11/15 06:28:25;;;;;;;20.15;4.55;;;21.00;45.50;;;;;;4994150;28;20052;-66
2021/11/15 06:30:51;;;;;;;24.30;5.20;;;21.00;45.90;;;;;;4992739;28;20121;-65
2021/11/15 06:33:16;;;;;;;13.98;3.90;;;21.00;46.30;;;;;;4994702;28;20064;-66
2021/11/15 06:35:42;;;;;;;20.50;4.03;;;21.00;46.40;;;;;;4992214;28;20046;-66
2021/11/15 06:38:08;;;;;;;19.85;3.80;;;21.00;46.50;;;;;;4994414;28;20034;-66
2021/11/15 06:40:34;;;;;;;10.20;3.35;;;21.00;46.50;;;;;;4993233;28;20053;-65
2021/11/15 06:43:02;;;;;;;12.02;3.22;;;21.00;46.80;;;;;;4995769;28;20099;-66
2021/11/15 06:45:30;;;;;;;11.68;3.08;;;21.10;46.70;;;;;;4995229;28;20041;-66
2021/11/15 06:47:56;;;;;;;12.63;2.97;;;21.10;46.60;;;;;;4994590;28;20111;-66
2021/11/15 06:50:23;;;;;;;13.05;3.00;;;21.00;46.40;;;;;;4994887;28;20046;-66
2021/11/15 06:52:50;;;;;;;9.98;2.95;;;21.00;46.50;;;;;;4994618;28;20044;-65
2021/11/15 06:55:19;;;;;;;17.30;2.72;;;21.10;46.60;;;;;;4996226;28;20101;-66
2021/11/15 06:57:46;;;;;;;9.25;2.65;;;21.00;46.50;;;;;;4998250;28;20046;-66
2021/11/15 07:00:23;;;;;;;9.48;2.45;;;21.00;46.40;;;;;;4996804;28;20049;-65
2021/11/15 07:02:51;;;;;;;7.28;2.50;;;21.00;46.40;;;;;;5000102;28;20046;-66
2021/11/15 07:05:18;;;;;;;7.70;2.63;;;21.10;46.60;;;;;;4999664;28;20503;-66
2021/11/15 07:07:46;;;;;;;6.80;2.30;;;21.10;46.50;;;;;;4998826;28;20056;-66
2021/11/15 07:10:12;;;;;;;10.45;2.30;;;21.00;46.20;;;;;;4995847;28;20149;-66
2021/11/15 07:12:39;;;;;;;8.57;2.40;;;21.00;46.30;;;;;;4997563;28;20515;-66
2021/11/15 07:15:05;;;;;;;6.32;2.28;;;21.00;46.20;;;;;;5001492;28;20729;-66
2021/11/15 07:17:31;;;;;;;6.55;2.25;;;21.00;46.20;;;;;;4999253;28;20050;-66
2021/11/15 07:19:57;;;;;;;5.80;2.28;;;21.00;46.20;;;;;;4995716;28;20045;-67
2021/11/15 07:22:22;;;;;;;9.18;1.98;;;21.00;46.20;;;;;;4996481;28;20038;-66
2021/11/15 07:24:48;;;;;;;5.65;2.10;;;21.00;46.30;;;;;;4997122;28;20049;-67
2021/11/15 07:27:15;;;;;;;6.85;2.50;;;21.10;46.50;;;;;;4997527;28;20049;-66
2021/11/15 07:29:40;;;;;;;6.28;2.20;;;21.00;46.10;;;;;;4995589;28;20089;-66
2021/11/15 07:32:12;;;;;;;9.48;2.75;;;21.00;46.20;;;;;;4997151;28;20077;-65
2021/11/15 07:34:40;;;;;;;7.15;2.38;;;21.00;46.10;;;;;;4997837;28;20050;-66
2021/11/15 07:37:06;;;;;;;6.07;2.00;;;21.00;46.10;;;;;;4998088;28;20459;-66
2021/11/15 07:39:37;;;;;;;6.22;2.50;;;21.00;46.10;;;;;;4997584;28;20049;-65
2021/11/15 07:42:04;;;;;;;5.18;2.00;;;21.00;46.20;;;;;;4998598;28;20042;-66
2021/11/15 07:44:29;;;;;;;6.25;2.10;;;21.00;46.10;;;;;;4997178;28;20038;-66
2021/11/15 07:46:55;;;;;;;5.60;1.77;;;21.00;46.00;;;;;;4997577;28;20041;-66
2021/11/15 07:49:21;;;;;;;4.80;1.90;;;21.00;46.00;;;;;;4997007;28;20121;-65
2021/11/15 07:51:46;;;;;;;9.77;2.17;;;21.00;45.90;;;;;;4999152;28;20041;-66
2021/11/15 07:54:12;;;;;;;7.22;1.95;;;21.00;45.90;;;;;;4993312;28;20118;-66
2021/11/15 07:56:38;;;;;;;5.63;1.92;;;21.00;46.00;;;;;;4994019;28;20073;-66
2021/11/15 07:59:03;;;;;;;6.07;2.00;;;21.00;46.00;;;;;;4996659;28;20030;-66
2021/11/15 08:01:29;;;;;;;6.38;2.03;;;21.00;45.90;;;;;;5000273;28;20807;-66
2021/11/15 08:03:55;;;;;;;5.07;1.90;;;21.00;45.90;;;;;;4996831;28;20818;-65
2021/11/15 08:06:20;;;;;;;5.30;1.85;;;21.00;45.80;;;;;;4996420;28;20034;-66
2021/11/15 08:08:47;;;;;;;4.53;1.77;;;21.00;45.80;;;;;;4996998;28;20114;-66
2021/11/15 08:11:15;;;;;;;4.70;1.85;;;21.00;45.80;;;;;;4996558;28;20042;-66
2021/11/15 08:13:40;;;;;;;4.35;1.60;;;21.00;45.70;;;;;;4997559;28;20057;-64
2021/11/15 08:16:06;;;;;;;6.03;1.70;;;21.00;45.70;;;;;;4997043;28;20042;-66
2021/11/15 08:18:36;;;;;;;4.30;1.80;;;21.00;45.60;;;;;;4997032;28;20050;-66
2021/11/15 08:21:05;;;;;;;4.35;1.73;;;21.00;45.60;;;;;;4996794;28;20453;-65
2021/11/15 08:23:31;;;;;;;5.70;1.75;;;21.00;45.70;;;;;;4996306;28;20088;-66
2021/11/15 08:26:28;;;;;;;4.82;1.75;;;21.00;45.70;;;;;;4996552;28;20581;-66
2021/11/15 08:29:00;;;;;;;5.00;1.60;;;21.00;45.50;;;;;;4996670;28;20088;-66
2021/11/15 08:31:27;;;;;;;5.03;1.90;;;21.00;45.60;;;;;;4996855;28;20057;-65
2021/11/15 08:33:54;;;;;;;5.75;1.80;;;21.00;45.60;;;;;;4997869;28;20046;-66
2021/11/15 08:36:20;;;;;;;4.63;1.80;;;21.00;45.60;;;;;;4996448;28;20042;-66
2021/11/15 08:39:06;;;;;;;6.20;1.92;;;21.10;45.80;;;;;;4999450;28;20057;-66
2021/11/15 08:41:35;;;;;;;5.18;1.70;;;21.10;45.80;;;;;;4996984;28;20050;-66
2021/11/15 08:44:05;;;;;;;4.47;1.52;;;21.10;45.80;;;;;;4996841;28;20561;-66
2021/11/15 08:46:32;;;;;;;4.57;1.50;;;21.10;45.80;;;;;;4997860;28;20062;-65
2021/11/15 08:49:00;;;;;;;4.18;1.50;;;21.10;45.80;;;;;;4996313;28;20042;-66
2021/11/15 08:51:25;;;;;;;4.43;1.55;;;21.10;45.80;;;;;;4995392;28;20046;-66
2021/11/15 08:53:54;;;;;;;5.60;1.75;;;21.10;45.80;;;;;;4994485;28;20090;-66
2021/11/15 08:56:20;;;;;;;4.50;1.50;;;21.10;45.70;;;;;;4993371;28;20492;-66
2021/11/15 08:58:47;;;;;;;4.18;1.45;;;21.10;45.70;;;;;;4995125;28;20077;-66
2021/11/15 09:01:14;;;;;;;5.47;1.60;;;21.10;45.60;;;;;;4997760;28;20030;-66
2021/11/15 09:03:42;;;;;;;3.63;1.20;;;21.20;45.80;;;;;;4996299;28;20050;-66
2021/11/15 09:06:09;;;;;;;4.47;1.40;;;21.10;45.60;;;;;;4994763;28;20069;-65
2021/11/15 09:08:36;;;;;;;4.32;1.50;;;21.10;45.60;;;;;;4995114;28;20046;-66
2021/11/15 09:11:04;;;;;;;4.25;1.52;;;21.20;45.80;;;;;;4995460;28;20407;-66
2021/11/15 09:13:30;;;;;;;5.35;1.45;;;21.20;45.60;;;;;;4995826;28;20083;-66
2021/11/15 09:15:56;;;;;;;4.20;1.45;;;21.20;45.70;;;;;;4997919;28;20046;-65
2021/11/15 09:18:22;;;;;;;5.43;1.60;;;21.10;45.40;;;;;;4995139;28;20045;-66
2021/11/15 09:20:47;;;;;;;4.15;1.40;;;21.20;45.50;;;;;;4995426;28;20085;-66
2021/11/15 09:23:14;;;;;;;4.07;1.60;;;21.20;45.40;;;;;;4995809;28;20050;-66
2021/11/15 09:25:41;;;;;;;4.93;1.48;;;21.20;45.40;;;;;;4996520;28;20424;-66
2021/11/15 09:28:08;;;;;;;5.43;1.92;;;21.20;45.40;;;;;;4996350;28;20073;-66
2021/11/15 09:30:34;;;;;;;7.68;1.50;;;21.10;45.20;;;;;;4995518;28;20064;-66
2021/11/15 09:32:59;;;;;;;4.00;1.50;;;21.10;45.20;;;;;;4998935;28;20313;-66
2021/11/15 09:35:26;;;;;;;5.05;1.60;;;21.20;45.40;;;;;;4996560;28;20038;-66
2021/11/15 09:37:52;;;;;;;4.85;1.33;;;21.10;45.00;;;;;;4995045;28;20622;-66
2021/11/15 09:40:18;;;;;;;4.00;1.48;;;21.10;45.40;;;;;;4993456;28;20035;-66
2021/11/15 09:42:44;;;;;;;5.25;1.95;;;21.10;44.90;;;;;;4994176;28;20046;-66
2021/11/15 09:45:10;;;;;;;4.57;1.45;;;21.10;44.90;;;;;;4994802;28;20034;-67
2021/11/15 09:47:39;;;;;;;3.72;1.52;;;21.10;45.00;;;;;;4994299;28;20435;-67
2021/11/15 09:50:07;;;;;;;4.78;1.70;;;21.10;44.80;;;;;;5002404;28;20459;-67
2021/11/15 09:52:34;;;;;;;4.22;1.50;;;21.10;45.00;;;;;;4995367;28;20057;-68
2021/11/15 09:55:03;;;;;;;4.65;1.80;;;21.10;44.90;;;;;;4994882;28;20038;-67
2021/11/15 09:57:30;;;;;;;5.38;1.85;;;21.10;44.80;;;;;;4994894;28;20045;-67
2021/11/15 09:59:56;;;;;;;4.28;1.52;;;21.10;44.80;;;;;;4993395;28;20634;-67
2021/11/15 10:02:22;;;;;;;4.80;1.60;;;21.10;44.90;;;;;;4994311;28;20053;-67
2021/11/15 10:04:48;;;;;;;4.43;1.63;;;21.10;44.80;;;;;;4994893;28;20141;-67
2021/11/15 10:07:13;;;;;;;4.05;1.50;;;21.10;45.00;;;;;;4996364;28;20073;-67
2021/11/15 10:09:42;;;;;;;3.83;1.38;;;21.10;45.20;;;;;;4995128;28;20139;-67
2021/11/15 10:12:14;;;;;;;4.30;1.70;;;21.10;45.10;;;;;;4994250;28;20042;-67
2021/11/15 10:15:04;;;;;;;4.72;1.63;;;21.10;45.10;;;;;;4995270;28;20503;-67
2021/11/15 10:17:42;;;;;;;3.85;1.45;;;21.10;45.10;;;;;;4996452;28;20054;-66
2021/11/15 10:20:09;;;;;;;3.97;1.50;;;21.10;45.10;;;;;;4994377;28;20042;-67
2021/11/15 10:22:35;;;;;;;4.30;1.50;;;21.10;45.00;;;;;;4995326;28;20046;-67
2021/11/15 10:25:00;;;;;;;4.72;1.75;;;21.10;45.00;;;;;;4994375;28;20037;-67
2021/11/15 10:27:29;;;;;;;5.20;1.83;;;21.10;44.90;;;;;;4993474;28;20046;-67
2021/11/15 10:29:54;;;;;;;4.97;1.73;;;21.10;45.00;;;;;;4995774;28;20050;-67
2021/11/15 10:32:29;;;;;;;4.68;1.70;;;21.10;44.80;;;;;;4992780;28;20465;-66
2021/11/15 10:35:00;;;;;;;4.93;2.13;;;21.10;44.70;;;;;;4994006;28;20049;-66
2021/11/15 10:37:29;;;;;;;4.75;2.08;;;21.10;44.60;;;;;;4993586;28;20117;-66
2021/11/15 10:40:16;;;;;;;4.53;1.88;;;21.10;44.50;;;;;;4995954;28;20034;-66
2021/11/15 10:42:48;;;;;;;5.47;2.20;;;21.10;44.50;;;;;;4993685;28;20128;-66
2021/11/15 10:45:21;;;;;;;5.25;2.10;;;21.10;44.50;;;;;;4995495;28;20052;-66
2021/11/15 10:47:51;;;;;;;5.28;2.03;;;21.10;44.60;;;;;;4994897;28;20046;-66
2021/11/15 10:53:06;;;;;;;5.40;2.05;;;21.10;44.40;;;;;;4995809;28;20050;-66
2021/11/15 10:55:35;;;;;;;;;;;21.10;44.40;;;;;;4992778;28;20125;-66
2021/11/15 10:58:16;;;;;;;5.72;2.15;;;21.10;44.50;;;;;;4993176;28;19924;-66
2021/11/15 11:00:51;;;;;;;4.88;1.95;;;21.10;44.40;;;;;;4993839;28;20072;-66
2021/11/15 11:03:20;;;;;;;5.75;2.33;;;21.10;44.30;;;;;;4994718;28;20072;-66
2021/11/15 11:05:48;;;;;;;4.97;1.98;;;21.10;44.40;;;;;;4993631;28;20038;-66
2021/11/15 11:08:20;;;;;;;5.65;2.10;;;21.10;44.50;;;;;;4991878;28;20042;-66
2021/11/15 11:11:13;;;;;;;5.75;2.17;;;21.10;44.40;;;;;;4994548;28;20096;-66
2021/11/15 11:13:52;;;;;;;6.72;2.30;;;21.10;44.40;;;;;;4991132;28;20529;-66
2021/11/15 11:16:20;;;;;;;5.07;2.20;;;21.10;44.30;;;;;;4994578;28;20049;-66
2021/11/15 11:18:52;;;;;;;5.85;2.38;;;21.10;44.40;;;;;;4993624;28;20048;-66
2021/11/15 11:21:42;;;;;;;6.15;2.40;;;21.10;44.30;;;;;;4993102;28;20042;-66
2021/11/15 11:26:57;;;;;;;6.15;2.25;;;21.10;44.40;;;;;;4993405;28;20038;-66
2021/11/15 11:29:39;;;;;;;5.53;2.20;;;21.10;44.40;;;;;;4993803;28;20126;-66
2021/11/15 11:32:09;;;;;;;6.05;2.15;;;21.10;44.30;;;;;;4992025;28;20145;-64
2021/11/15 11:34:36;;;;;;;5.70;2.45;;;21.10;44.30;;;;;;4992429;28;20073;-66
2021/11/15 11:37:10;;;;;;;6.18;2.22;;;21.10;44.20;;;;;;4991950;28;20030;-66
2021/11/15 11:39:37;;;;;;;5.50;2.20;;;21.10;44.20;;;;;;4996336;28;20521;-66
2021/11/15 11:42:05;;;;;;;8.82;2.55;;;21.00;44.30;;;;;;4996524;28;20724;-67
2021/11/15 11:44:32;;;;;;;7.45;2.42;;;21.00;44.30;;;;;;5000099;28;20046;-66
2021/11/15 11:47:00;;;;;;;5.53;2.33;;;21.00;44.50;;;;;;4997065;28;20096;-66
2021/11/15 11:49:28;;;;;;;6.18;2.15;;;21.00;44.60;;;;;;4999559;28;20166;-66
2021/11/15 11:51:57;;;;;;;6.18;2.20;;;21.00;44.60;;;;;;4996205;28;20042;-66
2021/11/15 11:54:33;;;;;;;5.55;2.30;;;21.00;44.60;;;;;;4996390;28;20042;-66
2021/11/15 11:57:24;;;;;;;5.13;2.17;;;21.00;44.70;;;;;;4995381;28;20034;-66
2021/11/15 11:59:50;;;;;;;5.78;2.05;;;21.00;44.70;;;;;;4990492;28;20096;-66
2021/11/15 12:02:24;;;;;;;5.22;2.00;;;21.00;44.70;;;;;;4997527;28;20046;-66
2021/11/15 12:04:59;;;;;;;5.45;2.28;;;21.00;44.70;;;;;;4996603;28;20054;-65
2021/11/15 12:07:36;;;;;;;;;;;21.00;44.50;;;;;;4995361;28;20630;-66
2021/11/15 12:10:09;;;;;;;6.35;2.63;;;21.00;44.50;;;;;;4994872;28;20028;-66
2021/11/15 12:12:53;;;;;;;5.07;2.03;;;21.00;44.40;;;;;;4996389;28;20511;-66
2021/11/15 12:15:36;;;;;;;5.00;2.08;;;21.00;44.30;;;;;;4998400;28;20459;-66
2021/11/15 12:18:05;;;;;;;4.68;2.08;;;21.00;44.30;;;;;;5011995;28;20450;-66
2021/11/15 12:20:31;;;;;;;6.78;2.13;;;21.00;44.30;;;;;;4997905;28;20042;-66
2021/11/15 12:22:58;;;;;;;6.18;2.08;;;21.00;44.30;;;;;;4995956;28;20400;-66
2021/11/15 12:25:26;;;;;;;4.93;2.22;;;21.00;44.30;;;;;;4995411;28;20042;-66
2021/11/15 12:28:00;;;;;;;7.40;2.28;;;21.00;44.30;;;;;;4996349;28;20164;-66
2021/11/15 12:30:29;;;;;;;6.18;2.45;;;21.00;44.10;;;;;;4996184;28;20407;-66
2021/11/15 12:33:25;;;;;;;6.30;2.38;;;21.00;44.10;;;;;;4996517;28;20533;-66
2021/11/15 12:36:23;;;;;;;6.35;2.55;;;21.00;44.10;;;;;;4986638;28;20053;-66
2021/11/15 12:38:53;;;;;;;5.15;2.10;;;21.00;44.30;;;;;;4996870;28;20137;-67
2021/11/15 12:41:19;;;;;;;8.70;2.30;;;21.00;44.20;;;;;;4995907;28;20415;-66
2021/11/15 12:44:04;;;;;;;5.63;2.38;;;21.00;44.20;;;;;;4995784;28;20443;-67
2021/11/15 12:46:50;;;;;;;11.65;2.58;;;21.00;44.20;;;;;;4994806;28;20053;-66
2021/11/15 12:49:21;;;;;;;9.20;2.53;;;21.00;44.10;;;;;;4996272;28;20037;-66
2021/11/15 12:52:05;;;;;;;8.40;2.75;;;20.90;44.30;;;;;;4996235;28;20159;-66
2021/11/15 12:54:36;;;;;;;6.93;2.60;;;20.90;44.90;;;;;;4995509;28;20372;-66
2021/11/15 12:57:03;;;;;;;9.70;2.80;;;20.90;45.40;;;;;;4996408;28;20041;-66